Time;durP1;ratioP1;P1;durP2;ratioP2;P2;SDS_P1;SDS_P2;PMS_P1;PMS_P2;Temp;Humidity;BMP_temperature;BMP_pressure;BME280_temperature;BME280_humidity;BME280_pressure;Samples;Min_cycle;Max_cycle;Signal;HPM_P1;HPM_P2
2022/11/24 00:02:18;;;;;;;30.80;24.10;;;;;;;;;;5057625;28;20679;-55
2022/11/24 00:04:43;;;;;;;35.47;25.00;;;;;;;;;;5049156;28;20186;-55
2022/11/24 00:07:08;;;;;;;32.30;24.63;;;;;;;;;;5050955;28;20277;-56
2022/11/24 00:09:33;;;;;;;34.10;24.17;;;;;;;;;;5066327;28;20177;-57
2022/11/24 00:12:00;;;;;;;30.50;25.50;;;;;;;;;;5070428;28;20617;-56
2022/11/24 00:14:25;;;;;;;32.30;23.97;;;;;;;;;;5070456;28;20540;-56
2022/11/24 00:16:50;;;;;;;30.23;23.23;;;;;;;;;;5070915;28;20684;-57
2022/11/24 00:19:15;;;;;;;29.43;22.77;;;;;;;;;;5070683;28;20626;-55
2022/11/24 00:21:40;;;;;;;29.90;23.70;;;;;;;;;;5070672;28;20235;-56
2022/11/24 00:24:06;;;;;;;28.90;21.93;;;;;;;;;;5068416;28;20210;-56
2022/11/24 00:26:32;;;;;;;29.80;22.47;;;;;;;;;;5070796;28;20269;-56
2022/11/24 00:28:58;;;;;;;31.43;23.10;;;;;;;;;;5063357;28;20173;-56
2022/11/24 00:31:28;;;;;;;27.07;21.03;;;;;;;;;;5070515;28;20574;-55
2022/11/24 00:33:54;;;;;;;26.60;20.43;;;;;;;;;;5071536;28;21158;-55
2022/11/24 00:36:20;;;;;;;29.67;23.20;;;;;;;;;;5086850;28;20966;-56
2022/11/24 00:38:46;;;;;;;32.67;24.00;;;;;;;;;;5064193;28;20761;-56
2022/11/24 00:41:12;;;;;;;30.23;22.50;;;;;;;;;;5066214;28;20852;-55
2022/11/24 00:43:37;;;;;;;38.67;25.37;;;;;;;;;;5061682;28;20185;-55
2022/11/24 00:46:02;;;;;;;32.23;24.50;;;;;;;;;;5064763;28;20630;-56
2022/11/24 00:48:28;;;;;;;30.63;23.85;;;;;;;;;;5069334;28;20192;-55
2022/11/24 00:50:57;;;;;;;30.93;22.83;;;;;;;;;;5050213;28;20209;-55
2022/11/24 00:53:23;;;;;;;33.53;25.97;;;;;;;;;;5050152;28;20578;-55
2022/11/24 00:55:49;;;;;;;32.97;23.67;;;;;;;;;;5049936;28;21120;-55
2022/11/24 00:58:14;;;;;;;39.30;26.40;;;;;;;;;;5050177;28;20295;-55
2022/11/24 01:00:39;;;;;;;34.00;23.10;;;;;;;;;;5063310;28;20247;-56
2022/11/24 01:03:04;;;;;;;35.50;25.90;;;;;;;;;;5053310;28;20181;-55
2022/11/24 01:05:29;;;;;;;33.77;24.17;;;;;;;;;;5069989;28;20202;-55
2022/11/24 01:07:54;;;;;;;28.23;21.10;;;;;;;;;;5050653;28;20185;-55
2022/11/24 01:10:20;;;;;;;34.23;22.97;;;;;;;;;;5050114;28;20180;-56
2022/11/24 01:12:45;;;;;;;30.13;23.60;;;;;;;;;;5050134;28;20189;-55
2022/11/24 01:15:10;;;;;;;32.43;23.07;;;;;;;;;;5050334;28;20267;-56
2022/11/24 01:17:35;;;;;;;34.57;25.60;;;;;;;;;;5065683;28;20318;-56
2022/11/24 01:20:00;;;;;;;28.63;22.90;;;;;;;;;;5070221;28;20167;-56
2022/11/24 01:22:26;;;;;;;33.93;24.97;;;;;;;;;;5069779;28;20276;-55
2022/11/24 01:24:51;;;;;;;37.87;24.90;;;;;;;;;;5062599;28;20604;-56
2022/11/24 01:27:16;;;;;;;32.17;23.97;;;;;;;;;;5070296;28;20177;-56
2022/11/24 01:29:41;;;;;;;34.27;24.30;;;;;;;;;;5070006;28;20168;-56
2022/11/24 01:32:07;;;;;;;32.03;24.00;;;;;;;;;;5069922;28;20241;-55
2022/11/24 01:34:32;;;;;;;33.93;24.37;;;;;;;;;;5068105;28;20184;-56
2022/11/24 01:36:57;;;;;;;33.08;22.65;;;;;;;;;;5070240;28;20256;-56
2022/11/24 01:39:22;;;;;;;33.03;22.17;;;;;;;;;;5069986;28;20251;-56
2022/11/24 01:41:47;;;;;;;29.33;23.20;;;;;;;;;;5069733;28;20731;-57
2022/11/24 01:44:26;;;;;;;31.30;24.20;;;;;;;;;;5069844;28;20166;-56
2022/11/24 01:46:54;;;;;;;32.30;24.43;;;;;;;;;;5059276;28;20670;-56
2022/11/24 01:49:33;;;;;;;35.20;25.83;;;;;;;;;;5072247;28;20578;-56
2022/11/24 01:52:03;;;;;;;33.73;25.23;;;;;;;;;;5066333;28;20630;-56
2022/11/24 01:54:34;;;;;;;31.63;25.03;;;;;;;;;;5053498;28;20658;-56
2022/11/24 01:57:03;;;;;;;36.70;23.90;;;;;;;;;;5068657;28;20606;-56
2022/11/24 01:59:29;;;;;;;29.80;22.40;;;;;;;;;;5065395;28;20626;-56
2022/11/24 02:01:55;;;;;;;32.37;24.50;;;;;;;;;;5067680;28;21194;-56
2022/11/24 02:04:22;;;;;;;31.07;22.87;;;;;;;;;;5073145;28;20178;-56
2022/11/24 02:06:49;;;;;;;33.93;24.30;;;;;;;;;;5071410;28;20631;-56
2022/11/24 02:09:14;;;;;;;34.40;23.93;;;;;;;;;;5053187;28;20574;-56
2022/11/24 02:11:40;;;;;;;30.95;23.00;;;;;;;;;;5053185;28;20665;-56
2022/11/24 02:14:06;;;;;;;31.27;24.73;;;;;;;;;;5068716;28;20176;-55
2022/11/24 02:16:34;;;;;;;27.90;22.83;;;;;;;;;;5070978;28;20621;-55
2022/11/24 02:18:59;;;;;;;29.13;22.40;;;;;;;;;;5072909;28;20650;-57
2022/11/24 02:21:24;;;;;;;31.63;22.90;;;;;;;;;;5072831;28;20727;-55
2022/11/24 02:23:49;;;;;;;30.23;21.70;;;;;;;;;;5072740;28;20251;-56
2022/11/24 02:26:35;;;;;;;30.42;23.02;;;;;;;;;;5072797;28;20583;-55
2022/11/24 02:29:01;;;;;;;30.33;22.60;;;;;;;;;;5071571;28;20699;-56
2022/11/24 02:31:26;;;;;;;29.63;22.70;;;;;;;;;;5072683;28;20673;-55
2022/11/24 02:33:51;;;;;;;29.53;22.10;;;;;;;;;;5072507;28;20207;-55
2022/11/24 02:36:16;;;;;;;34.10;23.13;;;;;;;;;;5072935;28;20573;-55
2022/11/24 02:38:42;;;;;;;31.15;21.98;;;;;;;;;;5070747;28;20180;-55
2022/11/24 02:41:10;;;;;;;30.00;22.57;;;;;;;;;;5072625;28;20199;-55
2022/11/24 02:43:40;;;;;;;25.43;21.87;;;;;;;;;;5072165;28;20188;-56
2022/11/24 02:46:05;;;;;;;28.80;21.10;;;;;;;;;;5075966;28;20697;-55
2022/11/24 02:48:31;;;;;;;27.83;19.83;;;;;;;;;;5074395;28;20712;-56
2022/11/24 02:50:56;;;;;;;28.30;21.83;;;;;;;;;;5058535;28;20176;-54
2022/11/24 02:53:21;;;;;;;27.10;21.60;;;;;;;;;;5066604;28;20184;-57
2022/11/24 02:55:46;;;;;;;29.37;21.53;;;;;;;;;;5065386;28;20200;-55
2022/11/24 02:58:13;;;;;;;29.00;21.50;;;;;;;;;;5062133;28;20420;-56
2022/11/24 03:00:38;;;;;;;29.80;22.70;;;;;;;;;;5060465;28;20538;-55
2022/11/24 03:03:04;;;;;;;32.70;23.13;;;;;;;;;;5057726;28;20691;-55
2022/11/24 03:05:29;;;;;;;27.80;20.93;;;;;;;;;;5072251;28;20172;-56
2022/11/24 03:07:54;;;;;;;29.75;22.30;;;;;;;;;;5057343;28;20188;-55
2022/11/24 03:10:19;;;;;;;27.58;21.33;;;;;;;;;;5066776;28;20200;-54
2022/11/24 03:12:45;;;;;;;30.43;21.90;;;;;;;;;;5071802;28;20196;-55
2022/11/24 03:15:10;;;;;;;28.87;21.77;;;;;;;;;;5072121;28;20523;-55
2022/11/24 03:17:35;;;;;;;29.53;22.10;;;;;;;;;;5069578;28;20215;-56
2022/11/24 03:20:01;;;;;;;26.40;20.80;;;;;;;;;;5068612;28;20653;-56
2022/11/24 03:22:26;;;;;;;32.93;23.70;;;;;;;;;;5071602;28;20565;-55
2022/11/24 03:24:52;;;;;;;30.23;22.57;;;;;;;;;;5071733;28;20255;-56
2022/11/24 03:27:17;;;;;;;31.00;22.20;;;;;;;;;;5071823;28;20654;-56
2022/11/24 03:29:42;;;;;;;30.43;22.40;;;;;;;;;;5071575;28;20178;-56
2022/11/24 03:32:07;;;;;;;30.77;21.17;;;;;;;;;;5069220;28;20190;-56
2022/11/24 03:34:32;;;;;;;25.37;20.20;;;;;;;;;;5071523;28;20246;-56
2022/11/24 03:36:57;;;;;;;28.77;21.90;;;;;;;;;;5071647;28;20176;-56
2022/11/24 03:39:23;;;;;;;30.07;21.40;;;;;;;;;;5069650;28;20299;-56
2022/11/24 03:41:50;;;;;;;29.95;21.55;;;;;;;;;;5069525;28;20206;-56
2022/11/24 03:44:15;;;;;;;30.23;21.80;;;;;;;;;;5071254;28;20547;-57
2022/11/24 03:46:40;;;;;;;28.40;19.90;;;;;;;;;;5071326;28;20569;-59
2022/11/24 03:49:05;;;;;;;30.83;22.17;;;;;;;;;;5071277;28;20515;-56
2022/11/24 03:51:30;;;;;;;28.10;22.13;;;;;;;;;;5068874;28;20180;-55
2022/11/24 03:53:56;;;;;;;30.30;21.53;;;;;;;;;;5051034;28;20623;-55
2022/11/24 03:56:21;;;;;;;31.65;22.45;;;;;;;;;;5061154;28;20211;-55
2022/11/24 03:58:46;;;;;;;32.20;20.53;;;;;;;;;;5068575;28;20545;-55
2022/11/24 04:01:11;;;;;;;30.42;21.35;;;;;;;;;;5085144;28;20203;-55
2022/11/24 04:03:36;;;;;;;27.40;21.17;;;;;;;;;;5053789;28;20184;-55
2022/11/24 04:06:01;;;;;;;30.67;21.00;;;;;;;;;;5053725;28;20171;-55
2022/11/24 04:08:27;;;;;;;28.50;20.17;;;;;;;;;;5070062;28;20546;-57
2022/11/24 04:10:53;;;;;;;30.27;20.63;;;;;;;;;;5066599;28;20179;-57
2022/11/24 04:13:19;;;;;;;29.40;23.53;;;;;;;;;;5061241;28;20698;-57
2022/11/24 04:15:45;;;;;;;28.93;20.77;;;;;;;;;;5076807;28;20613;-57
2022/11/24 04:18:11;;;;;;;23.60;19.10;;;;;;;;;;5067334;28;20740;-57
2022/11/24 04:20:36;;;;;;;28.33;20.67;;;;;;;;;;5053424;28;21119;-57
2022/11/24 04:23:02;;;;;;;30.00;22.00;;;;;;;;;;5062635;28;20648;-57
2022/11/24 04:25:27;;;;;;;27.43;20.60;;;;;;;;;;5076474;28;20546;-57
2022/11/24 04:27:53;;;;;;;32.10;22.70;;;;;;;;;;5062858;28;20188;-57
2022/11/24 04:30:18;;;;;;;28.50;21.30;;;;;;;;;;5068414;28;20176;-57
2022/11/24 04:32:43;;;;;;;28.07;21.83;;;;;;;;;;5056926;28;20687;-57
2022/11/24 04:35:09;;;;;;;27.20;20.60;;;;;;;;;;5064306;28;20233;-57
2022/11/24 04:37:34;;;;;;;29.83;21.80;;;;;;;;;;5050872;28;20606;-56
2022/11/24 04:39:59;;;;;;;30.40;21.43;;;;;;;;;;5059249;28;20204;-56
2022/11/24 04:42:24;;;;;;;29.20;22.10;;;;;;;;;;5071255;28;20563;-57
2022/11/24 04:44:50;;;;;;;31.33;20.87;;;;;;;;;;5078617;28;20224;-57
2022/11/24 04:47:17;;;;;;;31.57;21.50;;;;;;;;;;5078451;28;20179;-57
2022/11/24 04:49:42;;;;;;;26.97;21.13;;;;;;;;;;5069812;28;20206;-57
2022/11/24 04:52:07;;;;;;;30.07;20.60;;;;;;;;;;5053715;28;20615;-57
2022/11/24 04:54:32;;;;;;;29.10;20.30;;;;;;;;;;5066958;28;20187;-57
2022/11/24 04:56:58;;;;;;;26.30;18.77;;;;;;;;;;5068222;28;20199;-57
2022/11/24 04:59:23;;;;;;;24.10;19.07;;;;;;;;;;5078927;28;20210;-57
2022/11/24 05:01:48;;;;;;;27.17;20.20;;;;;;;;;;5060888;28;20189;-57
2022/11/24 05:04:14;;;;;;;26.80;19.00;;;;;;;;;;5063688;28;20173;-56
2022/11/24 05:06:39;;;;;;;23.93;18.23;;;;;;;;;;5066689;28;20168;-56
2022/11/24 05:09:05;;;;;;;25.00;18.43;;;;;;;;;;5082560;28;20390;-55
2022/11/24 05:11:30;;;;;;;22.77;17.60;;;;;;;;;;5081583;28;20172;-56
2022/11/24 05:13:55;;;;;;;23.33;17.33;;;;;;;;;;5084856;28;20345;-56
2022/11/24 05:16:21;;;;;;;23.00;16.77;;;;;;;;;;5063605;28;20175;-57
2022/11/24 05:18:46;;;;;;;20.00;16.70;;;;;;;;;;5072106;28;20230;-56
2022/11/24 05:21:11;;;;;;;19.73;16.40;;;;;;;;;;5064413;28;20211;-57
2022/11/24 05:23:36;;;;;;;20.23;15.20;;;;;;;;;;5069322;28;20259;-56
2022/11/24 05:26:02;;;;;;;18.80;15.50;;;;;;;;;;5065807;28;20251;-56
2022/11/24 05:28:28;;;;;;;20.00;14.50;;;;;;;;;;5069340;28;20275;-56
2022/11/24 05:30:53;;;;;;;19.20;15.13;;;;;;;;;;5060364;28;20177;-56
2022/11/24 05:33:19;;;;;;;20.27;15.67;;;;;;;;;;5073141;28;20184;-56
2022/11/24 05:35:47;;;;;;;18.37;14.97;;;;;;;;;;5079146;28;20201;-56
2022/11/24 05:38:13;;;;;;;18.80;13.80;;;;;;;;;;5057384;28;20177;-56
2022/11/24 05:40:39;;;;;;;19.47;15.43;;;;;;;;;;5070189;28;21214;-56
2022/11/24 05:43:04;;;;;;;17.87;14.87;;;;;;;;;;5061204;28;20261;-57
2022/11/24 05:45:29;;;;;;;20.17;15.20;;;;;;;;;;5054616;28;20276;-56
2022/11/24 05:48:02;;;;;;;21.60;16.77;;;;;;;;;;5052465;28;20237;-56
2022/11/24 05:50:27;;;;;;;18.57;15.33;;;;;;;;;;5064331;28;20230;-57
2022/11/24 05:52:52;;;;;;;20.80;15.90;;;;;;;;;;5052910;28;20628;-55
2022/11/24 05:55:18;;;;;;;21.83;16.70;;;;;;;;;;5051331;28;20207;-56
2022/11/24 05:57:43;;;;;;;21.67;16.97;;;;;;;;;;5050927;28;20176;-55
2022/11/24 06:00:10;;;;;;;18.23;15.13;;;;;;;;;;5054803;28;20188;-55
2022/11/24 06:02:35;;;;;;;19.40;16.33;;;;;;;;;;5068299;28;20202;-55
2022/11/24 06:05:00;;;;;;;19.47;16.00;;;;;;;;;;5055852;28;20980;-56
2022/11/24 06:07:25;;;;;;;20.67;16.60;;;;;;;;;;5060104;28;20222;-55
2022/11/24 06:09:50;;;;;;;16.63;14.73;;;;;;;;;;5062592;28;20176;-55
2022/11/24 06:12:16;;;;;;;17.63;14.73;;;;;;;;;;5057648;28;20615;-57
2022/11/24 06:14:41;;;;;;;18.67;16.13;;;;;;;;;;5053887;28;20634;-56
2022/11/24 06:17:06;;;;;;;21.33;17.63;;;;;;;;;;5051708;28;20701;-56
2022/11/24 06:19:31;;;;;;;18.07;16.27;;;;;;;;;;5053403;28;20780;-56
2022/11/24 06:21:56;;;;;;;18.63;15.03;;;;;;;;;;5069854;28;20205;-56
2022/11/24 06:24:22;;;;;;;16.33;14.37;;;;;;;;;;5056756;28;20181;-55
2022/11/24 06:26:47;;;;;;;18.73;14.10;;;;;;;;;;5067662;28;20214;-55
2022/11/24 06:29:12;;;;;;;18.80;14.63;;;;;;;;;;5072172;28;20270;-57
2022/11/24 06:31:38;;;;;;;18.10;15.53;;;;;;;;;;5073144;28;20184;-56
2022/11/24 06:34:07;;;;;;;21.98;15.82;;;;;;;;;;5071397;28;20184;-55
2022/11/24 06:36:32;;;;;;;17.77;15.27;;;;;;;;;;5073159;28;20198;-56
2022/11/24 06:38:59;;;;;;;16.03;14.30;;;;;;;;;;5070881;28;21152;-56
2022/11/24 06:41:24;;;;;;;18.17;16.03;;;;;;;;;;5070953;28;20287;-55
2022/11/24 06:43:49;;;;;;;19.13;16.07;;;;;;;;;;5072508;28;20718;-56
2022/11/24 06:46:15;;;;;;;21.57;17.43;;;;;;;;;;5072817;28;20243;-57
2022/11/24 06:48:40;;;;;;;18.37;16.37;;;;;;;;;;5072431;28;20618;-55
2022/11/24 06:51:06;;;;;;;16.87;14.90;;;;;;;;;;5053949;28;20177;-56
2022/11/24 06:53:36;;;;;;;20.23;16.10;;;;;;;;;;5056544;28;20672;-56
2022/11/24 06:56:02;;;;;;;22.43;16.30;;;;;;;;;;5053477;28;20656;-57
2022/11/24 06:58:27;;;;;;;21.10;16.97;;;;;;;;;;5053013;28;21031;-56
2022/11/24 07:00:52;;;;;;;21.43;17.47;;;;;;;;;;5056127;28;20173;-56
2022/11/24 07:03:18;;;;;;;20.47;16.43;;;;;;;;;;5052818;28;20332;-56
2022/11/24 07:05:43;;;;;;;19.67;17.67;;;;;;;;;;5067215;28;20178;-56
2022/11/24 07:08:08;;;;;;;22.40;17.93;;;;;;;;;;5069255;28;20179;-56
2022/11/24 07:10:34;;;;;;;23.37;19.60;;;;;;;;;;5071915;28;20163;-56
2022/11/24 07:13:02;;;;;;;21.93;18.60;;;;;;;;;;5062814;28;20195;-56
2022/11/24 07:15:28;;;;;;;22.00;19.10;;;;;;;;;;5068633;28;20187;-56
2022/11/24 07:17:53;;;;;;;21.27;18.93;;;;;;;;;;5062204;28;21103;-56
2022/11/24 07:20:18;;;;;;;22.65;20.20;;;;;;;;;;5056031;28;20726;-56
2022/11/24 07:22:43;;;;;;;23.53;20.20;;;;;;;;;;5064841;28;20298;-56
2022/11/24 07:25:09;;;;;;;24.83;20.27;;;;;;;;;;5070217;28;20696;-57
2022/11/24 07:27:34;;;;;;;22.80;19.83;;;;;;;;;;5062729;28;20639;-57
2022/11/24 07:29:59;;;;;;;25.60;20.23;;;;;;;;;;5065941;28;20208;-56
2022/11/24 07:32:24;;;;;;;24.20;20.20;;;;;;;;;;5083284;28;20658;-56
2022/11/24 07:34:50;;;;;;;26.07;19.73;;;;;;;;;;5077876;28;20536;-56
2022/11/24 07:37:15;;;;;;;24.37;20.20;;;;;;;;;;5049895;28;20172;-55
2022/11/24 07:39:40;;;;;;;25.73;21.47;;;;;;;;;;5067973;28;20657;-56
2022/11/24 07:42:07;;;;;;;26.37;20.60;;;;;;;;;;5057350;28;20211;-56
2022/11/24 07:44:32;;;;;;;25.87;21.20;;;;;;;;;;5052295;28;20259;-56
2022/11/24 07:46:57;;;;;;;23.00;20.13;;;;;;;;;;5057898;28;20704;-55
2022/11/24 07:49:22;;;;;;;23.67;20.48;;;;;;;;;;5051239;28;20637;-56
2022/11/24 07:51:47;;;;;;;26.27;20.93;;;;;;;;;;5050994;28;20186;-57
2022/11/24 07:54:13;;;;;;;20.83;18.50;;;;;;;;;;5050622;28;20188;-57
2022/11/24 07:56:38;;;;;;;25.70;19.83;;;;;;;;;;5051141;28;20276;-57
2022/11/24 07:59:03;;;;;;;22.47;19.00;;;;;;;;;;5051027;28;20657;-56
2022/11/24 08:01:28;;;;;;;23.67;19.77;;;;;;;;;;5050436;28;20249;-56
2022/11/24 08:03:53;;;;;;;21.33;19.07;;;;;;;;;;5060194;28;20164;-57
2022/11/24 08:06:19;;;;;;;27.77;20.13;;;;;;;;;;5071038;28;20185;-57
2022/11/24 08:08:44;;;;;;;24.13;19.77;;;;;;;;;;5070880;28;20172;-58
2022/11/24 08:11:11;;;;;;;24.17;20.97;;;;;;;;;;5070595;28;20167;-56
2022/11/24 08:13:36;;;;;;;27.20;22.20;;;;;;;;;;5060299;28;20201;-57
2022/11/24 08:16:08;;;;;;;25.97;21.87;;;;;;;;;;5049182;28;20596;-56
2022/11/24 08:18:34;;;;;;;26.13;22.30;;;;;;;;;;5050777;28;20329;-56
2022/11/24 08:21:26;;;;;;;26.13;23.37;;;;;;;;;;5055176;28;20720;-56
2022/11/24 08:23:55;;;;;;;26.20;21.80;;;;;;;;;;5047721;28;20630;-56
2022/11/24 08:26:23;;;;;;;30.53;24.17;;;;;;;;;;5050392;28;21157;-57
2022/11/24 08:28:51;;;;;;;27.93;23.73;;;;;;;;;;5050746;28;20580;-59
2022/11/24 08:31:17;;;;;;;26.57;23.70;;;;;;;;;;5064539;28;20605;-57
2022/11/24 08:33:43;;;;;;;29.57;24.23;;;;;;;;;;5070451;28;20582;-56
2022/11/24 08:36:09;;;;;;;25.33;22.53;;;;;;;;;;5070205;28;20587;-57
2022/11/24 08:38:35;;;;;;;29.03;25.17;;;;;;;;;;5070530;28;20258;-56
2022/11/24 08:41:04;;;;;;;25.67;22.60;;;;;;;;;;5061642;28;20698;-57
2022/11/24 08:43:29;;;;;;;27.87;24.73;;;;;;;;;;5050201;28;20209;-56
2022/11/24 08:45:57;;;;;;;29.30;25.23;;;;;;;;;;5050074;28;20611;-57
2022/11/24 08:48:23;;;;;;;27.43;24.57;;;;;;;;;;5050521;28;20205;-57
2022/11/24 08:50:48;;;;;;;29.97;26.17;;;;;;;;;;5052434;28;21148;-56
2022/11/24 08:53:13;;;;;;;26.53;23.70;;;;;;;;;;5054624;28;20185;-56
2022/11/24 08:55:38;;;;;;;28.20;24.27;;;;;;;;;;5069199;28;20291;-56
2022/11/24 08:58:03;;;;;;;26.73;23.87;;;;;;;;;;5064430;28;20169;-57
2022/11/24 09:00:28;;;;;;;28.83;25.25;;;;;;;;;;5050733;28;20588;-56
2022/11/24 09:02:55;;;;;;;27.93;23.67;;;;;;;;;;5061734;28;20201;-56
2022/11/24 09:05:20;;;;;;;29.60;26.40;;;;;;;;;;5050306;28;20666;-55
2022/11/24 09:07:45;;;;;;;27.63;24.70;;;;;;;;;;5050411;28;20606;-57
2022/11/24 09:10:10;;;;;;;26.83;24.02;;;;;;;;;;5063097;28;20166;-56
2022/11/24 09:12:35;;;;;;;29.90;25.83;;;;;;;;;;5068387;28;20283;-56
2022/11/24 09:15:00;;;;;;;26.60;23.80;;;;;;;;;;5067663;28;20256;-58
2022/11/24 09:17:26;;;;;;;27.30;22.80;;;;;;;;;;5069321;28;20973;-61
2022/11/24 09:19:51;;;;;;;24.70;22.17;;;;;;;;;;5050341;28;20285;-57
2022/11/24 09:22:18;;;;;;;28.37;25.47;;;;;;;;;;5049373;28;20259;-57
2022/11/24 09:24:43;;;;;;;28.80;25.53;;;;;;;;;;5055144;28;20170;-56
2022/11/24 09:27:08;;;;;;;25.90;23.20;;;;;;;;;;5049951;28;20598;-56
2022/11/24 09:29:33;;;;;;;32.10;28.23;;;;;;;;;;5049914;28;20656;-56
2022/11/24 09:31:58;;;;;;;28.70;24.60;;;;;;;;;;5058296;28;20193;-57
2022/11/24 09:34:23;;;;;;;27.37;23.90;;;;;;;;;;5069705;28;20183;-57
2022/11/24 09:36:50;;;;;;;29.87;24.97;;;;;;;;;;5054241;28;20167;-57
2022/11/24 09:39:15;;;;;;;28.03;24.40;;;;;;;;;;5049361;28;20252;-57
2022/11/24 09:41:47;;;;;;;27.00;24.20;;;;;;;;;;5049854;28;20649;-57
2022/11/24 09:44:31;;;;;;;28.13;24.80;;;;;;;;;;5049821;28;20170;-57
2022/11/24 09:47:04;;;;;;;26.03;22.93;;;;;;;;;;5049413;28;21268;-58
2022/11/24 09:49:33;;;;;;;25.83;23.13;;;;;;;;;;5049733;28;20595;-57
2022/11/24 09:52:02;;;;;;;29.67;26.57;;;;;;;;;;5067606;28;20605;-58
2022/11/24 09:54:28;;;;;;;29.07;26.27;;;;;;;;;;5069642;28;20594;-57
2022/11/24 09:56:55;;;;;;;26.80;23.90;;;;;;;;;;5069475;28;20616;-58
2022/11/24 09:59:22;;;;;;;27.70;25.10;;;;;;;;;;5069715;28;20578;-58
2022/11/24 10:01:47;;;;;;;27.20;24.40;;;;;;;;;;5067944;28;20644;-56
2022/11/24 10:04:15;;;;;;;30.83;27.73;;;;;;;;;;5069395;28;20587;-55
2022/11/24 10:06:47;;;;;;;30.47;27.37;;;;;;;;;;5069477;28;20171;-56
2022/11/24 10:09:18;;;;;;;30.73;27.73;;;;;;;;;;5072836;28;20596;-57
2022/11/24 10:11:45;;;;;;;28.23;25.20;;;;;;;;;;5065115;28;20605;-56
2022/11/24 10:14:11;;;;;;;29.13;26.20;;;;;;;;;;5050532;28;20585;-56
2022/11/24 10:16:42;;;;;;;30.15;27.15;;;;;;;;;;5051509;28;20593;-58
2022/11/24 10:19:23;;;;;;;29.70;26.60;;;;;;;;;;5053230;28;20309;-56
2022/11/24 10:22:08;;;;;;;29.83;27.03;;;;;;;;;;5052925;28;20974;-57
2022/11/24 10:24:51;;;;;;;34.57;31.07;;;;;;;;;;5053045;28;20623;-58
2022/11/24 10:27:18;;;;;;;36.60;32.80;;;;;;;;;;5053144;28;20572;-57
2022/11/24 10:29:44;;;;;;;40.53;36.53;;;;;;;;;;5053021;28;20574;-57
2022/11/24 10:32:17;;;;;;;38.53;34.50;;;;;;;;;;5052415;28;20606;-57
2022/11/24 10:34:43;;;;;;;40.10;36.40;;;;;;;;;;5052869;28;20643;-56
2022/11/24 10:37:29;;;;;;;38.50;34.67;;;;;;;;;;5052834;28;20579;-57
2022/11/24 10:40:11;;;;;;;34.03;30.47;;;;;;;;;;5052912;28;21146;-58
2022/11/24 10:42:36;;;;;;;33.87;30.50;;;;;;;;;;5052044;28;20655;-58
2022/11/24 10:45:11;;;;;;;38.87;35.17;;;;;;;;;;5052911;28;20589;-56
2022/11/24 10:47:37;;;;;;;38.20;34.70;;;;;;;;;;5052571;28;20199;-56
2022/11/24 10:50:11;;;;;;;35.73;32.37;;;;;;;;;;5052641;28;21135;-58
2022/11/24 10:52:39;;;;;;;36.27;32.77;;;;;;;;;;5066925;28;20610;-56
2022/11/24 10:55:05;;;;;;;38.90;35.20;;;;;;;;;;5072435;28;20571;-57
2022/11/24 10:57:34;;;;;;;37.37;33.47;;;;;;;;;;5072659;28;21000;-57
2022/11/24 11:00:20;;;;;;;34.77;31.40;;;;;;;;;;5072577;28;20921;-56
2022/11/24 11:02:47;;;;;;;36.23;32.73;;;;;;;;;;5069901;28;21185;-56
2022/11/24 11:05:24;;;;;;;33.30;30.20;;;;;;;;;;5068895;28;20574;-56
2022/11/24 11:07:49;;;;;;;33.20;30.10;;;;;;;;;;5072184;28;21168;-57
2022/11/24 11:10:19;;;;;;;34.23;31.20;;;;;;;;;;5072298;28;20659;-58
2022/11/24 11:12:44;;;;;;;34.20;31.00;;;;;;;;;;5069795;28;20202;-58
2022/11/24 11:15:20;;;;;;;32.67;29.47;;;;;;;;;;5072427;28;20592;-57
2022/11/24 11:17:45;;;;;;;33.37;30.27;;;;;;;;;;5071825;28;20216;-58
2022/11/24 11:20:40;;;;;;;33.60;29.10;;;;;;;;;;5068043;28;20691;-57
2022/11/24 11:23:18;;;;;;;36.37;32.83;;;;;;;;;;5067859;28;20244;-55
2022/11/24 11:25:43;;;;;;;33.00;29.60;;;;;;;;;;5071806;28;21173;-55
2022/11/24 11:28:25;;;;;;;33.27;30.07;;;;;;;;;;5071491;28;20585;-56
2022/11/24 11:30:58;;;;;;;32.10;28.53;;;;;;;;;;5071399;28;20241;-56
2022/11/24 11:33:25;;;;;;;33.37;30.07;;;;;;;;;;5056593;28;20622;-56
2022/11/24 11:35:51;;;;;;;34.00;30.90;;;;;;;;;;5071605;28;20587;-56
2022/11/24 11:38:16;;;;;;;40.40;32.60;;;;;;;;;;5071334;28;20591;-56
2022/11/24 11:40:42;;;;;;;34.53;30.90;;;;;;;;;;5071312;28;20171;-56
2022/11/24 11:43:17;;;;;;;35.70;32.00;;;;;;;;;;5070901;28;20285;-56
2022/11/24 11:45:44;;;;;;;33.97;30.27;;;;;;;;;;5051263;28;20619;-55
2022/11/24 11:48:21;;;;;;;33.70;30.30;;;;;;;;;;5051308;28;20583;-56
2022/11/24 11:50:49;;;;;;;31.40;28.20;;;;;;;;;;5050823;28;20691;-56
2022/11/24 11:53:24;;;;;;;32.73;29.03;;;;;;;;;;5052778;28;21038;-56
2022/11/24 11:56:07;;;;;;;33.77;30.17;;;;;;;;;;5064031;28;20617;-56
2022/11/24 11:58:46;;;;;;;32.00;28.90;;;;;;;;;;5070939;28;20602;-57
2022/11/24 12:01:22;;;;;;;35.80;32.30;;;;;;;;;;5071075;28;20563;-58
2022/11/24 12:04:02;;;;;;;35.37;31.53;;;;;;;;;;5071144;28;20653;-58
2022/11/24 12:06:30;;;;;;;30.80;27.80;;;;;;;;;;5068840;28;20600;-56
2022/11/24 12:09:04;;;;;;;35.33;31.63;;;;;;;;;;5070871;28;20585;-57
2022/11/24 12:11:39;;;;;;;34.70;31.30;;;;;;;;;;5070969;28;20579;-56
2022/11/24 12:14:29;;;;;;;32.93;29.53;;;;;;;;;;5069756;28;20705;-57
2022/11/24 12:17:05;;;;;;;38.30;34.47;;;;;;;;;;5069206;28;20678;-57
2022/11/24 12:19:37;;;;;;;35.97;32.27;;;;;;;;;;5071076;28;20648;-56
2022/11/24 12:22:16;;;;;;;36.27;32.53;;;;;;;;;;5070917;28;20734;-57
2022/11/24 12:24:50;;;;;;;35.03;31.33;;;;;;;;;;5070867;28;20590;-56
2022/11/24 12:27:35;;;;;;;36.37;32.60;;;;;;;;;;5069046;28;20597;-57
2022/11/24 12:30:00;;;;;;;37.77;33.83;;;;;;;;;;5061917;28;20985;-56
2022/11/24 12:32:45;;;;;;;39.43;35.33;;;;;;;;;;5050811;28;20597;-56
2022/11/24 12:35:30;;;;;;;36.77;33.10;;;;;;;;;;5050881;28;20166;-56
2022/11/24 12:38:13;;;;;;;37.70;33.90;;;;;;;;;;5064272;28;20609;-55
2022/11/24 12:40:50;;;;;;;38.07;33.77;;;;;;;;;;5070475;28;20580;-56
2022/11/24 12:43:29;;;;;;;39.50;35.40;;;;;;;;;;5070511;28;21235;-56
2022/11/24 12:46:06;;;;;;;39.43;35.40;;;;;;;;;;5070119;28;20594;-58
2022/11/24 12:48:31;;;;;;;37.80;34.00;;;;;;;;;;5059277;28;20607;-56
2022/11/24 12:50:57;;;;;;;40.25;36.30;;;;;;;;;;5049994;28;20693;-57
2022/11/24 12:53:31;;;;;;;39.77;35.70;;;;;;;;;;5050243;28;20183;-57
2022/11/24 12:55:58;;;;;;;37.17;33.40;;;;;;;;;;5050526;28;20591;-57
2022/11/24 12:58:49;;;;;;;39.70;35.90;;;;;;;;;;5053296;28;20678;-57
2022/11/24 13:01:20;;;;;;;40.40;36.37;;;;;;;;;;5050295;28;20639;-57
2022/11/24 13:04:02;;;;;;;40.63;36.70;;;;;;;;;;5053474;28;20940;-58
2022/11/24 13:06:34;;;;;;;39.10;35.30;;;;;;;;;;5070495;28;20574;-57
2022/11/24 13:09:06;;;;;;;38.10;34.07;;;;;;;;;;5068597;28;20585;-56
2022/11/24 13:11:36;;;;;;;42.63;37.20;;;;;;;;;;5070223;28;20589;-56
2022/11/24 13:14:04;;;;;;;39.93;35.53;;;;;;;;;;5061500;28;20607;-56
2022/11/24 13:16:29;;;;;;;41.03;36.87;;;;;;;;;;5048553;28;20583;-57
2022/11/24 13:19:07;;;;;;;39.97;35.77;;;;;;;;;;5053121;28;21066;-56
2022/11/24 13:21:38;;;;;;;37.77;33.90;;;;;;;;;;5068547;28;20213;-57
2022/11/24 13:24:05;;;;;;;38.57;34.67;;;;;;;;;;5070153;28;20630;-57
2022/11/24 13:26:42;;;;;;;39.77;34.87;;;;;;;;;;5070269;28;20638;-56
2022/11/24 13:29:28;;;;;;;38.30;34.30;;;;;;;;;;5069577;28;20587;-56
2022/11/24 13:31:53;;;;;;;40.67;35.77;;;;;;;;;;5057411;28;20635;-55
2022/11/24 13:34:54;;;;;;;35.83;31.87;;;;;;;;;;5060237;28;20620;-56
2022/11/24 13:37:21;;;;;;;37.37;33.50;;;;;;;;;;5062216;28;20191;-57
2022/11/24 13:39:52;;;;;;;37.87;34.27;;;;;;;;;;5056428;28;21347;-58
2022/11/24 13:42:18;;;;;;;40.67;36.40;;;;;;;;;;5051434;28;20834;-57
2022/11/24 13:44:46;;;;;;;39.63;35.47;;;;;;;;;;5062255;28;20696;-57
2022/11/24 13:47:29;;;;;;;38.33;33.33;;;;;;;;;;5073776;28;20183;-57
2022/11/24 13:49:54;;;;;;;39.20;34.90;;;;;;;;;;5057164;28;21029;-57
2022/11/24 13:52:35;;;;;;;38.90;33.30;;;;;;;;;;5055181;28;20601;-57
2022/11/24 13:55:12;;;;;;;40.53;34.53;;;;;;;;;;5056815;28;20179;-57
2022/11/24 13:57:38;;;;;;;39.73;33.77;;;;;;;;;;5057198;28;20613;-55
2022/11/24 14:00:16;;;;;;;39.23;35.23;;;;;;;;;;5053773;28;20605;-57
2022/11/24 14:02:42;;;;;;;40.60;36.60;;;;;;;;;;5058183;28;21207;-56
2022/11/24 14:05:11;;;;;;;41.03;36.83;;;;;;;;;;5065450;28;20713;-57
2022/11/24 14:07:39;;;;;;;42.50;37.90;;;;;;;;;;5070511;28;20179;-56
2022/11/24 14:10:05;;;;;;;41.47;37.17;;;;;;;;;;5057658;28;21415;-56
2022/11/24 14:12:32;;;;;;;41.27;36.87;;;;;;;;;;5064513;28;20628;-56
2022/11/24 14:15:17;;;;;;;39.87;35.97;;;;;;;;;;5069357;28;20637;-56
2022/11/24 14:17:43;;;;;;;44.20;39.60;;;;;;;;;;5050359;28;21245;-56
2022/11/24 14:20:16;;;;;;;42.93;38.50;;;;;;;;;;5058628;28;20643;-55
2022/11/24 14:22:42;;;;;;;46.47;39.10;;;;;;;;;;5050451;28;20210;-55